BENVENUTI AL 154° GRUPPO VIRTUALE
Saturday, 30 May 2020 18:44

Continua l'addestramento delle nostre FRECCE

Written by
Rate this item
(0 votes)
OCU 2  Velivolo 104 FRERCCIA10 Pilot, FRECCIA01 Rio     Velivolo 103 FRERCCIA02 Pilot, FRECCIA14 Rio     Punto attesa pista 08   
Read 2520 times Last modified on Wednesday, 22 July 2020 07:27

3 comments

  • Comment Link смотреть филмы Thursday, 30 June 2022 03:11 posted by смотреть филмы

    Перейдите в наш универсальный онлайн-кинотеатр..
    Здесь смотреть филмы. Смотреть бесплано онлайн ГидОнлайн

  • Comment Link Link Monday, 23 May 2022 06:25 posted by Link

    Не пропустіть кращі новинки кіно українською
    2021 року Link

  • Comment Link Link Sunday, 08 May 2022 06:07 posted by Link

    Найкращі фільми 2021 Link

Leave a comment

Make sure you enter all the required information, indicated by an asterisk (*). HTML code is not allowed.

METAR & TAF

[Source: ADDS]
METAR
LIPL 041955Z 27004KT 9999 SCT040 22/20 Q1014 RMK BKN SCT100 VIS MIN 9999 WIND THR31 25003KT WIND THR13 27005KT BLU =
LIPL 042000Z 0421/0506 29008KT 9999 FEW025 SCT040 TEMPO 0503/0506 4000 BR
TAF
LIPL 042000Z 0421/0506 29008KT 9999 FEW025 SCT040 TEMPO 0503/0506 4000 BR =

Notice: Undefined index: sun in /web/htdocs/www.154gruppovirtuale.it/home/modules/mod_wx/tmpl/default.php on line 13

Official Tools

CombatFlite Logo  
 
   

Network

Simulation Platform